• Join FlightAware (Why Join?)
  • Login
  • US Flag 
06:01PM EDT


 

Airport Tracker/Info


-or-


 

Live Flight TrackerFlight Track Log ✈ SWA2278 ✈ 20-Apr-2013 ✈ KBWI - KDEN

Flight Track Log - Related Links

Times and Time Zones

All times are in EDT time to prevent confusion due to time zone crossing. See the SWA2278 flight status page for this flight to view local times or setup timezone preferences in your user account.

Time Position Orientation Groundspeed Altitude Reporting Facility
EDT Latitude Longitude Course Direction KTS MPH feet Rate Location/Type
11:51AM 39.1833 -76.7667 218° Southwest 200 230 2,800  Level Potomac TRACON
11:52AM 39.2000 -76.8333 288° West 215 247 5,600 3,300 Climbing Potomac TRACON
11:53AM 39.2000 -76.9000 270° West 214 246 9,100 2,580 Climbing Potomac TRACON
11:55AM 39.2033 -77.1558 271° West 340 391 14,700 2,340 Climbing Washington Center
11:56AM 39.0031 -77.3136 218° Southwest  Level FlightAware Approximate
11:56AM 39.1378 -77.2347 223° Southwest 306 352 17,600  Level Washington Center
11:57AM 39.1050 -77.3464 249° West 323 372 19,900 2,280 Climbing Washington Center
11:58AM 39.0719 -77.4606 250° West 336 387 22,200 2,100 Climbing Washington Center
11:59AM 39.0386 -77.5800 250° West 354 407 24,100 2,100 Climbing Washington Center
12:00PM 38.9989 -77.7125 249° West 365 420 26,400 1,440 Climbing Washington Center
12:01PM 38.9678 -77.8208 250° West 363 418 27,000 300 Climbing Washington Center
12:02PM 38.9319 -77.9453 250° West 368 423 27,000 1,200 Level Washington Center
12:03PM 38.8942 -78.0747 249° West 368 423 29,400 2,100 Climbing Washington Center
12:04PM 38.8603 -78.1908 249° West 363 418 31,300 1,560 Climbing Washington Center
12:05PM 38.8533 -78.3158 266° West 358 412 32,600 1,320 Climbing Washington Center
12:06PM 38.8525 -78.4467 270° West 364 419 34,000 1,200 Climbing Washington Center
12:07PM 38.8514 -78.5772 269° West 364 419 35,000 480 Climbing Washington Center
12:08PM 38.8503 -78.7050 269° West 364 419 35,000  Level Washington Center
12:09PM 38.8467 -78.8356 268° West 364 419 35,000  Level Washington Center
12:10PM 38.8453 -78.9661 269° West 364 419 35,000  Level Washington Center
12:11PM 38.8436 -79.0967 269° West 364 419 35,000 300 Level Washington Center
12:12PM 38.8417 -79.2297 269° West 369 425 35,600 480 Climbing Washington Center
12:13PM 38.8375 -79.3628 268° West 374 430 36,000 180 Climbing Washington Center
12:14PM 38.8375 -79.4933 270° West 374 430 36,000  Level Washington Center
12:15PM 38.8336 -79.6186 268° West 379 436 36,000  Level Washington Center
12:16PM 38.8311 -79.7517 269° West 379 436 36,000  Level Washington Center
12:19PM 38.8206 -80.0675 268° West 374 430 36,000  Level Indianapolis Center
12:20PM 38.8175 -80.1992 268° West 371 427 36,000  Level Indianapolis Center
12:21PM 38.8147 -80.3325 269° West 373 429 36,000  Level Indianapolis Center
12:22PM 38.8103 -80.4633 268° West 368 423 36,000  Level Indianapolis Center
12:23PM 38.8064 -80.5961 268° West 371 427 36,000  Level Indianapolis Center
12:24PM 38.8017 -80.7281 267° West 371 427 36,000  Level Indianapolis Center
12:25PM 38.7989 -80.8608 269° West 371 427 36,000  Level Indianapolis Center
12:26PM 38.7936 -80.9931 267° West 373 429 36,000  Level Indianapolis Center
12:27PM 38.7878 -81.1519 267° West 374 430 36,000 300 Level Indianapolis Center
12:28PM 38.7839 -81.2853 268° West 376 433 36,700 780 Climbing Indianapolis Center
12:29PM 38.7792 -81.4194 267° West 377 434 37,600 600 Climbing Indianapolis Center
12:30PM 38.7736 -81.5583 267° West 388 447 38,000 180 Climbing Indianapolis Center
12:31PM 38.7686 -81.6872 267° West 388 447 38,000  Level Indianapolis Center
12:32PM 38.7636 -81.8233 267° West 386 444 38,000  Level Indianapolis Center
12:33PM 38.7561 -81.9894 267° West 388 447 38,000  Level Indianapolis Center
12:34PM 38.7508 -82.1278 267° West 389 448 38,000  Level Indianapolis Center
12:35PM 38.7456 -82.2644 267° West 386 444 38,000  Level Indianapolis Center
12:36PM 38.7406 -82.4003 267° West 383 441 38,000  Level Indianapolis Center
12:37PM 38.7450 -82.5369 272° West 390 449 38,000  Level Indianapolis Center
12:38PM 38.7558 -82.6739 276° West 387 445 38,000  Level Indianapolis Center
12:39PM 38.7661 -82.8108 276° West 385 443 38,000  Level Indianapolis Center
12:40PM 38.7764 -82.9483 276° West 387 445 38,000  Level Indianapolis Center
12:41PM 38.7858 -83.0839 275° West 384 442 38,000  Level Indianapolis Center
12:42PM 38.7972 -83.2369 276° West 381 438 38,000  Level Indianapolis Center
12:43PM 38.8081 -83.3756 276° West 384 442 38,000  Level Indianapolis Center
12:44PM 38.8169 -83.5106 275° West 378 435 38,000  Level Indianapolis Center
12:45PM 38.8256 -83.6481 275° West 381 438 38,000  Level Indianapolis Center
12:46PM 38.8361 -83.7850 276° West 381 438 38,000  Level Indianapolis Center
12:47PM 38.8458 -83.9244 275° West 386 444 38,000  Level Indianapolis Center
12:48PM 38.8544 -84.0617 275° West 384 442 38,000  Level Indianapolis Center
12:49PM 38.8631 -84.1981 275° West 381 438 38,000  Level Indianapolis Center
12:50PM 38.8714 -84.3344 275° West 380 437 38,000  Level Indianapolis Center
12:51PM 38.8794 -84.4717 274° West 380 437 38,000  Level Indianapolis Center
12:52PM 38.8881 -84.6267 274° West 384 442 38,000  Level Indianapolis Center
12:53PM 38.8961 -84.7631 274° West 385 443 38,000  Level Indianapolis Center
12:54PM 38.9144 -84.8825 281° West 388 447 38,000  Level Indianapolis Center
12:55PM 38.9461 -85.0161 287° West 391 450 38,000  Level Indianapolis Center
12:56PM 38.9817 -85.1797 286° West 395 455 38,000  Level Indianapolis Center
12:57PM 39.0122 -85.3156 286° West 395 455 38,000  Level Indianapolis Center
12:58PM 39.0306 -85.4553 280° West 397 457 38,000  Level Indianapolis Center
12:59PM 39.0378 -85.5967 274° West 397 457 38,000  Level Indianapolis Center
01:00PM 39.0425 -85.7389 272° West 398 458 38,000  Level Indianapolis Center
01:01PM 39.0492 -85.8831 273° West 401 461 38,000  Level Indianapolis Center
01:03PM 39.0558 -86.0269 273° West 401 461 38,000  Level Indianapolis Center
01:04PM 39.0608 -86.1703 273° West 402 463 38,000  Level Indianapolis Center
01:05PM 39.0667 -86.3153 273° West 404 465 38,000  Level Indianapolis Center
01:06PM 39.0725 -86.4594 273° West 404 465 38,000  Level Indianapolis Center
01:07PM 39.0778 -86.6044 273° West 405 466 38,000  Level Indianapolis Center
01:08PM 39.0842 -86.7756 273° West 401 461 38,000  Level Indianapolis Center
01:09PM 39.0894 -86.9175 273° West 398 458 38,000  Level Indianapolis Center
01:10PM 39.0939 -87.0594 272° West 397 457 38,000  Level Indianapolis Center
01:11PM 39.0983 -87.1994 272° West 394 453 38,000  Level Indianapolis Center
01:12PM 39.1025 -87.3394 272° West 393 452 38,000  Level Indianapolis Center
01:14PM 39.1083 -87.5953 272° West 393 452 38,000  Level Kansas City Center
01:15PM 39.1125 -87.7358 272° West 393 452 38,000  Level Kansas City Center
01:16PM 39.1161 -87.8789 272° West 396 456 38,000  Level Kansas City Center
01:17PM 39.1206 -88.0508 272° West 399 459 38,000  Level Kansas City Center
01:18PM 39.1233 -88.1947 271° West 400 460 38,000  Level Kansas City Center
01:19PM 39.1264 -88.3389 272° West 401 461 38,000  Level Kansas City Center
01:20PM 39.1306 -88.4817 272° West 401 461 38,000  Level Kansas City Center
01:21PM 39.1333 -88.6247 271° West 400 460 38,000  Level Kansas City Center
01:22PM 39.1350 -88.7711 271° West 403 464 38,000  Level Kansas City Center
01:23PM 39.1394 -88.9147 272° West 403 464 38,000  Level Kansas City Center
01:24PM 39.1408 -89.0786 271° West 399 459 38,000  Level Kansas City Center
01:25PM 39.1428 -89.2303 271° West 395 455 38,000  Level Kansas City Center
01:26PM 39.1442 -89.3708 271° West 395 455 38,000  Level Kansas City Center
01:27PM 39.1467 -89.5231 271° West 396 456 38,000  Level Kansas City Center
01:28PM 39.1475 -89.6636 270° West 395 455 38,000  Level Kansas City Center
01:29PM 39.1497 -89.8183 271° West 402 463 38,000  Level Kansas City Center
01:30PM 39.1506 -89.9606 270° West 400 460 38,000  Level Kansas City Center
01:31PM 39.1525 -90.1039 271° West 401 461 38,000  Level Kansas City Center
01:32PM 39.1525 -90.2469 270° West 403 464 38,000  Level Kansas City Center
01:33PM 39.1533 -90.3886 270° West 401 461 38,000  Level Kansas City Center
01:34PM 39.1539 -90.5303 270° West 400 460 38,000  Level Kansas City Center
01:35PM 39.1544 -90.6967 270° West 394 453 38,000  Level Kansas City Center
01:36PM 39.1547 -90.8369 270° West 394 453 38,000  Level Kansas City Center
01:37PM 39.1556 -90.9811 270° West 401 461 38,000  Level Kansas City Center
01:38PM 39.1550 -91.1231 270° West 401 461 38,000  Level Kansas City Center
01:39PM 39.1536 -91.2669 269° West 402 463 38,000  Level Kansas City Center
01:40PM 39.1539 -91.4389 270° West 402 463 38,000  Level Kansas City Center
01:41PM 39.1525 -91.5828 269° West 404 465 38,000  Level Kansas City Center
01:42PM 39.1519 -91.7214 270° West 406 467 38,000  Level Kansas City Center
01:44PM 39.1494 -91.8656 269° West 405 466 38,000  Level Kansas City Center
01:45PM 39.1486 -92.0414 270° West 408 470 38,000  Level Kansas City Center
01:46PM 39.1464 -92.1850 269° West 403 464 38,000  Level Kansas City Center
01:47PM 39.1444 -92.3292 269° West 403 464 38,000  Level Kansas City Center
01:48PM 39.1417 -92.4731 269° West 403 464 38,000  Level Kansas City Center
01:49PM 39.1406 -92.6164 269° West 402 463 38,000  Level Kansas City Center
01:50PM 39.1378 -92.7731 269° West 402 463 38,000  Level Kansas City Center
01:51PM 39.1347 -92.9172 268° West 403 464 38,000  Level Kansas City Center
01:52PM 39.1325 -93.0631 269° West 408 470 38,000  Level Kansas City Center
01:53PM 39.1294 -93.2072 268° West 406 467 38,000  Level Kansas City Center
01:54PM 39.1256 -93.3497 268° West 402 463 38,000  Level Kansas City Center
01:55PM 39.1244 -93.5039 270° West 404 465 38,000  Level Kansas City Center
01:56PM 39.1203 -93.6628 268° West 399 459 38,000  Level Kansas City Center
01:57PM 39.1167 -93.7986 268° West 397 457 38,000  Level Kansas City Center
01:58PM 39.1131 -93.9569 268° West 397 457 38,000  Level Kansas City Center
01:59PM 39.1083 -94.0928 267° West 394 453 38,000  Level Kansas City Center
02:00PM 39.1033 -94.2508 268° West 393 452 38,000  Level Kansas City Center
02:01PM 39.0994 -94.3850 268° West 392 451 38,000  Level Kansas City Center
02:02PM 39.0953 -94.5422 268° West 393 452 38,000  Level Kansas City Center
02:03PM 39.0908 -94.6767 268° West 392 451 38,000  Level Kansas City Center
02:04PM 39.0861 -94.8128 267° West 396 456 38,000  Level Kansas City Center
02:05PM 39.0808 -94.9731 268° West 400 460 38,000  Level Kansas City Center
02:06PM 39.0753 -95.1292 267° West 403 464 38,000  Level Kansas City Center
02:07PM 39.0694 -95.2736 267° West 404 465 38,000  Level Kansas City Center
02:08PM 39.0633 -95.4181 267° West 405 466 38,000  Level Kansas City Center
02:09PM 39.0583 -95.5550 267° West 402 463 38,000  Level Kansas City Center
02:10PM 39.0517 -95.7153 267° West 400 460 38,000  Level Kansas City Center
02:11PM 39.0453 -95.8519 267° West 402 463 38,000  Level Kansas City Center
02:12PM 39.0386 -96.0114 267° West 400 460 38,000  Level Kansas City Center
02:13PM 39.0322 -96.1467 267° West 397 457 38,000  Level Kansas City Center
02:14PM 39.0261 -96.2822 267° West 397 457 38,000  Level Kansas City Center
02:15PM 39.0189 -96.4417 267° West 400 460 38,000  Level Kansas City Center
02:17PM 39.0086 -96.5758 264° West 395 455 38,000  Level Kansas City Center
02:18PM 39.0017 -96.7367 267° West 401 461 38,000  Level Kansas City Center
02:19PM 38.9947 -96.8744 266° West 403 464 38,000  Level Kansas City Center
02:20PM 38.9867 -97.0344 266° West 403 464 38,000  Level Kansas City Center
02:21PM 38.9819 -97.1722 268° West 403 464 38,000  Level Kansas City Center
02:22PM 38.9731 -97.3172 266° West 406 467 38,000  Level Kansas City Center
02:23PM 38.9653 -97.4592 266° West 403 464 38,000  Level Kansas City Center
02:24PM 38.9569 -97.6075 266° West 404 465 38,000  Level Kansas City Center
02:25PM 38.9483 -97.7672 266° West 402 463 38,000  Level Kansas City Center
02:26PM 38.9381 -97.9158 265° West 404 465 38,000  Level Kansas City Center
02:27PM 38.9294 -98.0564 266° West 398 458 38,000  Level Kansas City Center
02:28PM 38.9211 -98.1975 266° West 397 457 38,000  Level Kansas City Center
02:29PM 38.9117 -98.3386 265° West 398 458 38,000  Level Kansas City Center
02:30PM 38.9025 -98.4794 265° West 398 458 38,000  Level Kansas City Center
02:31PM 38.8939 -98.6219 266° West 402 463 38,000  Level Kansas City Center
02:32PM 38.8828 -98.7914 265° West 400 460 38,000  Level Kansas City Center
02:33PM 38.8717 -98.9333 264° West 401 461 38,000  Level Kansas City Center
02:34PM 38.8622 -99.0744 265° West 400 460 38,000  Level Kansas City Center
02:35PM 38.8519 -99.2150 265° West 397 457 38,000  Level Kansas City Center
02:36PM 38.8464 -99.3583 267° West 401 461 38,000  Level Kansas City Center
02:37PM 38.8506 -99.4633 273° West 398 458 38,000  Level Denver Center
02:38PM 38.8519 -99.6439 271° West 400 460 38,000  Level Denver Center
02:39PM 38.8531 -99.7792 271° West 397 457 38,000  Level Denver Center
02:40PM 38.8528 -99.9369 270° West 398 458 38,000  Level Denver Center
02:41PM 38.8533 -100.0742 270° West 400 460 38,000  Level Denver Center
02:42PM 38.8544 -100.2331 271° West 401 461 38,000  Level Denver Center
02:43PM 38.8547 -100.3692 270° West 401 461 38,000  Level Denver Center
02:44PM 38.8556 -100.5294 270° West 402 463 38,000  Level Denver Center
02:45PM 38.8547 -100.6667 270° West 404 465 38,000  Level Denver Center
02:46PM 38.8553 -100.8072 270° West 407 468 38,000  Level Denver Center
02:47PM 38.8550 -100.9681 270° West 407 468 38,000  Level Denver Center
02:48PM 38.8542 -101.1058 270° West 405 466 38,000 -720 Level Denver Center
02:49PM 38.8531 -101.2678 270° West 408 470 36,600 -1,200 Descending Denver Center
02:50PM 38.8519 -101.4053 269° West 406 467 35,600 -1,140 Descending Denver Center
02:51PM 38.8519 -101.5658 270° West 406 467 34,300 -840 Descending Denver Center
02:52PM 38.8511 -101.7044 270° West 407 468 34,000 -180 Descending Denver Center
02:53PM 38.8492 -101.8428 269° West 406 467 34,000  Level Denver Center
02:54PM 38.8461 -101.9994 269° West 397 457 34,000  Level Denver Center
02:55PM 38.8442 -102.1361 269° West 400 460 34,000  Level Denver Center
02:56PM 38.8417 -102.2931 269° West 396 456 34,000  Level Denver Center
02:58PM 38.8394 -102.4269 269° West 393 452 34,000  Level Denver Center
02:59PM 38.8392 -102.6086 270° West 401 461 34,000  Level Denver Center
03:00PM 38.9072 -102.7722 298° West 404 465 34,000 -120 Level Denver Center
03:01PM 38.9611 -102.9019 298° West 406 467 33,800 -1,080 Descending Denver Center
03:02PM 39.0253 -103.0481 300° West 399 459 31,400 -2,280 Descending Denver Center
03:03PM 39.0931 -103.2106 298° West 384 442 28,700 -2,280 Descending Denver Center
03:04PM 39.1431 -103.3286 299° West 373 429 26,800 -1,860 Descending Denver Center
03:05PM 39.1908 -103.4422 299° West 361 415 24,900 -1,860 Descending Denver Center
03:07PM 39.2378 -103.5544 298° West 356 410 23,000 -1,860 Descending Denver Center
03:08PM 39.2828 -103.6628 298° West 342 394 21,200 -1,740 Descending Denver Center
03:09PM 39.3261 -103.7683 298° West 333 383 19,500 -1,680 Descending Denver Center
03:10PM 39.3689 -103.8706 298° West 325 374 17,800 -1,620 Descending Denver Center
03:11PM 39.4006 -103.9847 290° West 324 373 16,300 -1,560 Descending Denver Center
03:12PM 39.4011 -104.0989 270° West 315 362 14,700 -1,440 Descending Denver Center
03:13PM 39.4053 -104.2158 273° West 305 351 13,400 -960 Descending Denver Center
03:14PM 39.4250 -104.3125 285° West 281 323 12,800 -900 Descending Denver Center
03:15PM 39.4433 -104.4153 283° West 293 337 11,600 -1,080 Descending Denver Center
03:16PM 39.5014 -104.4967 313° West 293 337 10,600 -900 Descending Denver Center
03:17PM 39.5594 -104.5667 317° Northwest 287 330 9,800 -720 Descending Denver Center
03:18PM 39.6192 -104.6356 318° Northwest 289 333 9,200 -720 Descending Denver Center
03:19PM 39.6881 -104.6628 343° North 253 291 8,200 -1,080 Descending Denver Center
03:20PM 39.7606 -104.6619 North 214 246 6,800 -1,140 Descending Denver Center
03:21PM 39.8053 -104.6617 360° North 165 190 5,900 -720 Descending Denver Center
03:22PM 39.8489 -104.6622 359° North 149 171 5,400 -540 Descending Denver Center
03:24PM 39.8500 -104.6667 North  Level FlightAware Approximate
03:31PM 39.8617 -104.6732 North  Level Estimated
03:32PM 39.8617 -104.6732 North  Level Estimated